Terminal Aerodrome Forecast
Issued by NWS Topeka, KS

Home | Current Version | Previous Version | Graphics & Text | Print | Product List | Glossary On
Versions: 1 2 3 4 5 6 7 8 9 10 11 12 13 14 15 16 17
000
FTUS43 KTOP 232333
TAFTOP
TAF
KTOP 232333Z 2400/2424 14006KT P6SM FEW020 BKN200
     FM241000 15007KT 6SM SHRA BR VCTS BKN025CB
     FM241600 16008KT P6SM SCT025 BKN150=

USA.gov is the U.S. government's official web portal to all federal, state and local government web resources and services.